Time,TemperatureF,DewpointF,PressureIn,WindDirection,WindDirectionDegrees,WindSpeedMPH,WindSpeedGustMPH,Humidity,HourlyPrecipIn,Conditions,Clouds,dailyrainin,SoftwareType,DateUTC
2013-07-30 00:01:00,60.8,50.2,30.25,West,271,0.0,1.0,68,0.00,,,0.00,WeatherCatV1.20B785,2013-07-30 04:01:00,
2013-07-30 00:02:00,60.9,50.3,30.26,West,271,0.0,0.0,68,0.00,,,0.00,WeatherCatV1.20B785,2013-07-30 04:02:00,
2013-07-30 00:06:00,60.9,51.4,30.26,West,271,0.0,1.0,71,0.00,,,0.00,WeatherCatV1.20B785,2013-07-30 04:06:00,
2013-07-30 00:11:00,61.2,50.9,30.26,West,271,0.0,0.0,69,0.00,,,0.00,WeatherCatV1.20B785,2013-07-30 04:11:00,
2013-07-30 00:16:00,61.4,52.7,30.26,West,271,0.0,0.0,73,0.00,,,0.00,WeatherCatV1.20B785,2013-07-30 04:16:00,
2013-07-30 00:21:00,61.6,53.6,30.26,West,271,0.0,0.0,75,0.00,,,0.00,WeatherCatV1.20B785,2013-07-30 04:21:00,
2013-07-30 00:26:00,61.5,52.8,30.25,West,271,0.0,0.0,73,0.00,,,0.00,WeatherCatV1.20B785,2013-07-30 04:26:00,
2013-07-30 00:31:00,61.4,53.0,30.25,West,271,0.0,0.0,74,0.00,,,0.00,WeatherCatV1.20B785,2013-07-30 04:31:00,
2013-07-30 00:36:00,61.4,50.7,30.26,West,271,0.0,0.0,68,0.00,,,0.00,WeatherCatV1.20B785,2013-07-30 04:36:00,
2013-07-30 00:38:00,61.4,50.3,30.26,West,271,0.0,0.0,67,0.00,,,0.00,WeatherCatV1.20B785,2013-07-30 04:38:00,
2013-07-30 00:43:00,61.4,51.5,30.26,West,271,0.0,0.0,70,0.00,,,0.00,WeatherCatV1.20B785,2013-07-30 04:43:00,
2013-07-30 00:48:00,61.4,51.5,30.26,West,271,0.0,0.0,70,0.00,,,0.00,WeatherCatV1.20B785,2013-07-30 04:48:00,
2013-07-30 00:53:00,61.3,51.0,30.26,West,271,0.0,0.0,69,0.00,,,0.00,WeatherCatV1.20B785,2013-07-30 04:53:00,
2013-07-30 00:58:00,61.3,50.6,30.26,West,271,0.0,0.0,68,0.00,,,0.00,WeatherCatV1.20B785,2013-07-30 04:58:00,
2013-07-30 01:03:00,61.3,51.4,30.26,West,271,0.0,0.0,70,0.00,,,0.00,WeatherCatV1.20B785,2013-07-30 05:03:00,
2013-07-30 01:08:00,61.2,52.5,30.26,West,271,0.0,0.0,73,0.00,,,0.00,WeatherCatV1.20B785,2013-07-30 05:08:00,
2013-07-30 01:13:00,61.1,53.8,30.26,West,271,0.0,0.0,77,0.00,,,0.00,WeatherCatV1.20B785,2013-07-30 05:13:00,
2013-07-30 01:18:00,61.1,55.2,30.26,West,271,0.0,0.0,81,0.00,,,0.00,WeatherCatV1.20B785,2013-07-30 05:18:00,
2013-07-30 01:23:00,61.2,55.7,30.25,West,271,0.0,1.0,82,0.00,,,0.00,WeatherCatV1.20B785,2013-07-30 05:23:00,
2013-07-30 01:28:00,61.3,56.4,30.25,West,271,0.0,0.0,84,0.00,,,0.00,WeatherCatV1.20B785,2013-07-30 05:28:00,
2013-07-30 01:33:00,61.3,56.8,30.25,West,271,0.0,1.0,85,0.00,,,0.00,WeatherCatV1.20B785,2013-07-30 05:33:00,
2013-07-30 01:38:00,61.3,57.4,30.25,West,271,0.0,0.0,87,0.00,,,0.00,WeatherCatV1.20B785,2013-07-30 05:38:00,
2013-07-30 01:43:00,61.2,57.3,30.25,West,271,0.0,0.0,87,0.00,,,0.00,WeatherCatV1.20B785,2013-07-30 05:43:00,
2013-07-30 01:48:00,61.1,57.5,30.25,West,271,0.0,0.0,88,0.00,,,0.00,WeatherCatV1.20B785,2013-07-30 05:48:00,
2013-07-30 01:53:00,61.1,57.2,30.24,West,271,0.0,0.0,87,0.00,,,0.00,WeatherCatV1.20B785,2013-07-30 05:53:00,
2013-07-30 01:58:00,61.1,57.2,30.25,West,271,0.0,0.0,87,0.00,,,0.00,WeatherCatV1.20B785,2013-07-30 05:58:00,
2013-07-30 02:03:00,61.1,56.9,30.24,West,271,0.0,0.0,86,0.00,,,0.00,WeatherCatV1.20B785,2013-07-30 06:03:00,
2013-07-30 02:08:00,61.1,56.9,30.24,West,271,0.0,0.0,86,0.00,,,0.00,WeatherCatV1.20B785,2013-07-30 06:08:00,
2013-07-30 02:13:00,61.1,57.2,30.24,West,271,0.0,0.0,87,0.00,,,0.00,WeatherCatV1.20B785,2013-07-30 06:13:00,
2013-07-30 02:18:00,61.0,56.8,30.24,West,271,0.0,0.0,86,0.00,,,0.00,WeatherCatV1.20B785,2013-07-30 06:18:00,
2013-07-30 02:23:00,60.9,56.7,30.24,West,271,0.0,1.0,86,0.00,,,0.00,WeatherCatV1.20B785,2013-07-30 06:23:00,
2013-07-30 02:28:00,60.8,56.6,30.24,SSW,198,0.0,3.0,86,0.00,,,0.00,WeatherCatV1.20B785,2013-07-30 06:28:00,
2013-07-30 02:33:00,60.6,56.7,30.24,SSW,198,0.0,1.0,87,0.00,,,0.00,WeatherCatV1.20B785,2013-07-30 06:33:00,
2013-07-30 02:38:00,60.5,56.6,30.24,SSW,194,0.0,0.0,87,0.00,,,0.00,WeatherCatV1.20B785,2013-07-30 06:38:00,
2013-07-30 02:43:00,60.5,56.9,30.24,SSW,194,0.0,0.0,88,0.00,,,0.00,WeatherCatV1.20B785,2013-07-30 06:43:00,
2013-07-30 02:48:00,60.4,56.8,30.24,SSW,192,0.0,1.0,88,0.00,,,0.00,WeatherCatV1.20B785,2013-07-30 06:48:00,
2013-07-30 02:53:00,60.4,56.2,30.24,SSW,193,0.0,1.0,86,0.00,,,0.00,WeatherCatV1.20B785,2013-07-30 06:53:00,
2013-07-30 02:58:00,60.7,56.8,30.23,SSW,193,0.0,0.0,87,0.00,,,0.00,WeatherCatV1.20B785,2013-07-30 06:58:00,
2013-07-30 03:03:00,60.7,56.5,30.23,SSW,194,0.0,1.0,86,0.00,,,0.00,WeatherCatV1.20B785,2013-07-30 07:03:00,
2013-07-30 03:08:00,60.9,56.7,30.23,SSW,193,0.0,0.0,86,0.00,,,0.00,WeatherCatV1.20B785,2013-07-30 07:08:00,
2013-07-30 03:13:00,61.1,56.9,30.24,SSW,193,0.0,0.0,86,0.00,,,0.00,WeatherCatV1.20B785,2013-07-30 07:13:00,
2013-07-30 03:18:00,61.2,56.7,30.23,SSW,194,0.0,1.0,85,0.00,,,0.00,WeatherCatV1.20B785,2013-07-30 07:18:00,
2013-07-30 03:23:00,61.4,55.8,30.23,SSW,193,0.0,0.0,82,0.00,,,0.00,WeatherCatV1.20B785,2013-07-30 07:23:00,
2013-07-30 03:28:00,61.8,55.9,30.23,SSW,194,0.0,3.0,81,0.00,,,0.00,WeatherCatV1.20B785,2013-07-30 07:28:00,
2013-07-30 03:33:00,62.0,56.4,30.23,SSW,192,0.0,2.0,82,0.00,,,0.00,WeatherCatV1.20B785,2013-07-30 07:33:00,
2013-07-30 03:38:00,62.2,56.6,30.23,South,172,1.0,4.0,82,0.00,,,0.00,WeatherCatV1.20B785,2013-07-30 07:38:00,
2013-07-30 03:43:00,62.3,56.7,30.23,South,172,0.0,1.0,82,0.00,,,0.00,WeatherCatV1.20B785,2013-07-30 07:43:00,
2013-07-30 03:48:00,62.3,57.1,30.23,South,172,0.0,1.0,83,0.00,,,0.00,WeatherCatV1.20B785,2013-07-30 07:48:00,
2013-07-30 03:53:00,62.0,56.8,30.23,South,172,0.0,1.0,83,0.00,,,0.00,WeatherCatV1.20B785,2013-07-30 07:53:00,
2013-07-30 03:58:00,61.6,57.0,30.23,South,172,0.0,0.0,85,0.00,,,0.00,WeatherCatV1.20B785,2013-07-30 07:58:00,
2013-07-30 04:03:00,61.1,56.9,30.23,South,172,0.0,1.0,86,0.00,,,0.00,WeatherCatV1.20B785,2013-07-30 08:03:00,
2013-07-30 04:08:00,60.7,56.8,30.23,South,172,0.0,1.0,87,0.00,,,0.00,WeatherCatV1.20B785,2013-07-30 08:08:00,
2013-07-30 04:13:00,60.3,56.7,30.23,South,172,0.0,1.0,88,0.00,,,0.00,WeatherCatV1.20B785,2013-07-30 08:13:00,
2013-07-30 04:18:00,60.0,56.7,30.23,South,172,0.0,0.0,89,0.00,,,0.00,WeatherCatV1.20B785,2013-07-30 08:18:00,
2013-07-30 04:23:00,59.8,56.9,30.24,South,172,0.0,1.0,90,0.00,,,0.00,WeatherCatV1.20B785,2013-07-30 08:23:00,
2013-07-30 04:28:00,59.5,56.6,30.24,South,172,0.0,0.0,90,0.00,,,0.00,WeatherCatV1.20B785,2013-07-30 08:28:00,
2013-07-30 04:33:00,59.4,56.8,30.24,South,172,0.0,1.0,91,0.00,,,0.00,WeatherCatV1.20B785,2013-07-30 08:33:00,
2013-07-30 04:38:00,59.3,56.7,30.24,South,172,0.0,0.0,91,0.00,,,0.00,WeatherCatV1.20B785,2013-07-30 08:38:00,
2013-07-30 04:43:00,59.1,56.5,30.24,South,172,0.0,0.0,91,0.00,,,0.00,WeatherCatV1.20B785,2013-07-30 08:43:00,
2013-07-30 04:48:00,59.0,56.7,30.24,South,172,0.0,0.0,92,0.00,,,0.00,WeatherCatV1.20B785,2013-07-30 08:48:00,
2013-07-30 04:53:00,59.0,57.0,30.24,South,172,0.0,0.0,93,0.00,,,0.00,WeatherCatV1.20B785,2013-07-30 08:53:00,
2013-07-30 04:58:00,59.1,57.1,30.24,South,172,0.0,0.0,93,0.00,,,0.00,WeatherCatV1.20B785,2013-07-30 08:58:00,
2013-07-30 05:03:00,59.3,57.3,30.24,South,172,0.0,0.0,93,0.00,,,0.00,WeatherCatV1.20B785,2013-07-30 09:03:00,
2013-07-30 05:08:00,59.2,57.2,30.24,South,172,0.0,0.0,93,0.00,,,0.00,WeatherCatV1.20B785,2013-07-30 09:08:00,
2013-07-30 05:13:00,59.2,57.5,30.24,South,172,0.0,0.0,94,0.00,,,0.00,WeatherCatV1.20B785,2013-07-30 09:13:00,
2013-07-30 05:18:00,59.3,57.6,30.24,South,172,0.0,0.0,94,0.00,,,0.00,WeatherCatV1.20B785,2013-07-30 09:18:00,
2013-07-30 05:23:00,59.4,58.0,30.25,South,172,0.0,1.0,95,0.00,,,0.00,WeatherCatV1.20B785,2013-07-30 09:23:00,
2013-07-30 05:28:00,59.5,58.1,30.25,South,172,0.0,0.0,95,0.00,,,0.00,WeatherCatV1.20B785,2013-07-30 09:28:00,
2013-07-30 05:33:00,59.6,58.2,30.25,South,172,1.0,2.0,95,0.00,,,0.00,WeatherCatV1.20B785,2013-07-30 09:33:00,
2013-07-30 05:38:00,59.8,58.1,30.25,South,172,0.0,0.0,94,0.00,,,0.00,WeatherCatV1.20B785,2013-07-30 09:38:00,
2013-07-30 05:43:00,60.0,58.3,30.25,South,172,0.0,1.0,94,0.00,,,0.00,WeatherCatV1.20B785,2013-07-30 09:43:00,
2013-07-30 05:48:00,60.2,58.5,30.25,South,172,0.0,0.0,94,0.00,,,0.00,WeatherCatV1.20B785,2013-07-30 09:48:00,
2013-07-30 05:53:00,60.3,58.0,30.25,South,172,0.0,1.0,92,0.00,,,0.00,WeatherCatV1.20B785,2013-07-30 09:53:00,
2013-07-30 05:58:00,60.4,58.1,30.25,South,172,0.0,0.0,92,0.00,,,0.00,WeatherCatV1.20B785,2013-07-30 09:58:00,
2013-07-30 06:03:00,60.5,58.2,30.25,South,172,0.0,0.0,92,0.00,,,0.00,WeatherCatV1.20B785,2013-07-30 10:03:00,
2013-07-30 06:08:00,60.4,57.8,30.25,South,172,0.0,1.0,91,0.00,,,0.00,WeatherCatV1.20B785,2013-07-30 10:08:00,
2013-07-30 06:13:00,60.4,57.5,30.25,South,172,0.0,1.0,90,0.00,,,0.00,WeatherCatV1.20B785,2013-07-30 10:13:00,
2013-07-30 06:18:00,60.3,57.3,30.25,South,172,0.0,0.0,90,0.00,,,0.00,WeatherCatV1.20B785,2013-07-30 10:18:00,
2013-07-30 06:23:00,60.1,56.8,30.26,South,172,0.0,0.0,89,0.00,,,0.00,WeatherCatV1.20B785,2013-07-30 10:23:00,
2013-07-30 06:28:00,59.8,56.9,30.26,South,172,0.0,1.0,90,0.00,,,0.00,WeatherCatV1.20B785,2013-07-30 10:28:00,
2013-07-30 06:33:00,59.6,57.0,30.26,South,172,0.0,0.0,91,0.00,,,0.00,WeatherCatV1.20B785,2013-07-30 10:33:00,
2013-07-30 06:38:00,59.6,57.0,30.26,South,172,0.0,0.0,91,0.00,,,0.00,WeatherCatV1.20B785,2013-07-30 10:38:00,
2013-07-30 06:43:00,59.6,57.3,30.26,South,172,0.0,0.0,92,0.00,,,0.00,WeatherCatV1.20B785,2013-07-30 10:43:00,
2013-07-30 06:48:00,59.6,57.3,30.26,South,172,0.0,1.0,92,0.00,,,0.00,WeatherCatV1.20B785,2013-07-30 10:48:00,
2013-07-30 06:53:00,59.6,57.6,30.26,South,172,0.0,1.0,93,0.00,,,0.00,WeatherCatV1.20B785,2013-07-30 10:53:00,
2013-07-30 06:58:00,59.6,57.6,30.26,South,172,0.0,0.0,93,0.00,,,0.00,WeatherCatV1.20B785,2013-07-30 10:58:00,
2013-07-30 07:03:00,59.7,58.0,30.26,South,172,0.0,0.0,94,0.00,,,0.00,WeatherCatV1.20B785,2013-07-30 11:03:00,
2013-07-30 07:08:00,59.9,58.2,30.26,South,172,0.0,0.0,94,0.00,,,0.00,WeatherCatV1.20B785,2013-07-30 11:08:00,
2013-07-30 07:13:00,60.0,58.3,30.26,South,172,0.0,0.0,94,0.00,,,0.00,WeatherCatV1.20B785,2013-07-30 11:13:00,
2013-07-30 07:18:00,60.3,58.9,30.26,South,172,0.0,0.0,95,0.00,,,0.00,WeatherCatV1.20B785,2013-07-30 11:18:00,
2013-07-30 07:23:00,60.4,59.0,30.27,South,172,0.0,0.0,95,0.00,,,0.00,WeatherCatV1.20B785,2013-07-30 11:23:00,
2013-07-30 07:28:00,60.5,58.8,30.27,South,172,0.0,0.0,94,0.00,,,0.00,WeatherCatV1.20B785,2013-07-30 11:28:00,
2013-07-30 07:33:00,60.5,58.8,30.27,South,172,0.0,0.0,94,0.00,,,0.00,WeatherCatV1.20B785,2013-07-30 11:33:00,
2013-07-30 07:38:00,60.5,58.8,30.27,South,172,0.0,0.0,94,0.00,,,0.00,WeatherCatV1.20B785,2013-07-30 11:38:00,
2013-07-30 07:43:00,60.4,58.7,30.27,South,172,0.0,1.0,94,0.00,,,0.00,WeatherCatV1.20B785,2013-07-30 11:43:00,
2013-07-30 07:48:00,60.3,58.3,30.27,South,172,0.0,0.0,93,0.00,,,0.00,WeatherCatV1.20B785,2013-07-30 11:48:00,
2013-07-30 07:53:00,60.2,58.2,30.27,South,172,0.0,0.0,93,0.00,,,0.00,WeatherCatV1.20B785,2013-07-30 11:53:00,
2013-07-30 07:58:00,60.2,58.5,30.27,South,172,0.0,1.0,94,0.00,,,0.00,WeatherCatV1.20B785,2013-07-30 11:58:00,
2013-07-30 08:03:00,60.2,58.5,30.27,South,172,0.0,1.0,94,0.00,,,0.00,WeatherCatV1.20B785,2013-07-30 12:03:00,
2013-07-30 08:08:00,60.3,58.9,30.27,South,172,0.0,0.0,95,0.00,,,0.00,WeatherCatV1.20B785,2013-07-30 12:08:00,
2013-07-30 08:13:00,60.5,59.1,30.27,South,172,0.0,0.0,95,0.00,,,0.00,WeatherCatV1.20B785,2013-07-30 12:13:00,
2013-07-30 08:18:00,60.6,59.2,30.27,South,172,0.0,0.0,95,0.00,,,0.00,WeatherCatV1.20B785,2013-07-30 12:18:00,
2013-07-30 08:23:00,60.8,59.4,30.28,South,172,0.0,0.0,95,0.00,,,0.00,WeatherCatV1.20B785,2013-07-30 12:23:00,
2013-07-30 08:28:00,60.8,59.4,30.28,South,172,0.0,0.0,95,0.00,,,0.00,WeatherCatV1.20B785,2013-07-30 12:28:00,
2013-07-30 08:33:00,60.9,59.5,30.28,South,172,0.0,0.0,95,0.00,,,0.00,WeatherCatV1.20B785,2013-07-30 12:33:00,
2013-07-30 08:38:00,61.0,59.5,30.28,South,172,0.0,0.0,95,0.00,,,0.00,WeatherCatV1.20B785,2013-07-30 12:38:00,
2013-07-30 08:43:00,61.0,59.5,30.28,South,172,0.0,0.0,95,0.00,,,0.00,WeatherCatV1.20B785,2013-07-30 12:43:00,
2013-07-30 08:48:00,61.1,59.7,30.28,South,172,0.0,1.0,95,0.00,,,0.00,WeatherCatV1.20B785,2013-07-30 12:48:00,
2013-07-30 08:53:00,61.2,59.5,30.28,South,172,0.0,0.0,94,0.00,,,0.00,WeatherCatV1.20B785,2013-07-30 12:53:00,
2013-07-30 08:58:00,61.3,59.3,30.28,South,172,0.0,0.0,93,0.00,,,0.00,WeatherCatV1.20B785,2013-07-30 12:58:00,
2013-07-30 09:03:00,61.4,59.7,30.28,South,172,0.0,0.0,94,0.00,,,0.00,WeatherCatV1.20B785,2013-07-30 13:03:00,
2013-07-30 09:08:00,61.5,59.8,30.28,South,172,0.0,0.0,94,0.00,,,0.00,WeatherCatV1.20B785,2013-07-30 13:08:00,
2013-07-30 09:13:00,61.6,59.5,30.28,South,172,0.0,0.0,93,0.00,,,0.00,WeatherCatV1.20B785,2013-07-30 13:13:00,
2013-07-30 09:18:00,61.8,59.8,30.29,South,172,0.0,0.0,93,0.00,,,0.00,WeatherCatV1.20B785,2013-07-30 13:18:00,
2013-07-30 09:23:00,61.9,59.5,30.28,South,172,0.0,0.0,92,0.00,,,0.00,WeatherCatV1.20B785,2013-07-30 13:23:00,
2013-07-30 09:28:00,62.1,59.7,30.29,South,172,0.0,0.0,92,0.00,,,0.00,WeatherCatV1.20B785,2013-07-30 13:28:00,
2013-07-30 09:33:00,62.3,59.9,30.29,South,172,0.0,0.0,92,0.00,,,0.00,WeatherCatV1.20B785,2013-07-30 13:33:00,
2013-07-30 09:38:00,62.4,59.7,30.29,South,172,0.0,0.0,91,0.00,,,0.00,WeatherCatV1.20B785,2013-07-30 13:38:00,
2013-07-30 09:43:00,62.5,59.8,30.29,South,172,0.0,0.0,91,0.00,,,0.00,WeatherCatV1.20B785,2013-07-30 13:43:00,
2013-07-30 09:48:00,62.6,59.9,30.29,South,172,0.0,0.0,91,0.00,,,0.00,WeatherCatV1.20B785,2013-07-30 13:48:00,
2013-07-30 09:53:00,62.6,59.9,30.29,South,172,0.0,0.0,91,0.00,,,0.00,WeatherCatV1.20B785,2013-07-30 13:53:00,
2013-07-30 09:58:00,62.8,60.1,30.29,South,172,0.0,0.0,91,0.00,,,0.00,WeatherCatV1.20B785,2013-07-30 13:58:00,
2013-07-30 10:03:00,63.2,60.5,30.29,South,172,0.0,1.0,91,0.00,,,0.00,WeatherCatV1.20B785,2013-07-30 14:03:00,
2013-07-30 10:08:00,63.8,61.1,30.28,South,172,0.0,1.0,91,0.00,,,0.00,WeatherCatV1.20B785,2013-07-30 14:08:00,
2013-07-30 10:13:00,64.5,61.5,30.28,ENE,74,1.0,2.0,90,0.00,,,0.00,WeatherCatV1.20B785,2013-07-30 14:13:00,
2013-07-30 10:18:00,65.4,61.8,30.28,NE,44,2.0,3.0,88,0.00,,,0.00,WeatherCatV1.20B785,2013-07-30 14:18:00,
2013-07-30 10:23:00,66.2,61.5,30.28,NE,44,0.0,0.0,85,0.00,,,0.00,WeatherCatV1.20B785,2013-07-30 14:23:00,
2013-07-30 10:28:00,66.6,61.6,30.28,NE,43,0.0,2.0,84,0.00,,,0.00,WeatherCatV1.20B785,2013-07-30 14:28:00,
2013-07-30 10:33:00,67.1,61.4,30.28,NE,43,0.0,0.0,82,0.00,,,0.00,WeatherCatV1.20B785,2013-07-30 14:33:00,
2013-07-30 10:38:00,67.6,61.9,30.28,NE,43,1.0,1.0,82,0.00,,,0.00,WeatherCatV1.20B785,2013-07-30 14:38:00,
2013-07-30 10:43:00,67.9,61.8,30.28,West,268,0.0,3.0,81,0.00,,,0.00,WeatherCatV1.20B785,2013-07-30 14:43:00,
2013-07-30 10:49:00,67.8,61.8,30.28,West,267,0.0,1.0,81,0.00,,,0.00,WeatherCatV1.20B785,2013-07-30 14:49:00,
2013-07-30 10:54:00,67.9,62.5,30.28,West,267,0.0,0.0,83,0.00,,,0.00,WeatherCatV1.20B785,2013-07-30 14:54:00,
2013-07-30 10:59:00,68.0,61.6,30.28,WNW,287,0.0,0.0,80,0.00,,,0.00,WeatherCatV1.20B785,2013-07-30 14:59:00,
2013-07-30 11:04:00,68.4,61.6,30.27,WNW,288,0.0,0.0,79,0.00,,,0.00,WeatherCatV1.20B785,2013-07-30 15:04:00,
2013-07-30 11:09:00,68.4,62.0,30.28,WNW,288,0.0,0.0,80,0.00,,,0.00,WeatherCatV1.20B785,2013-07-30 15:09:00,
2013-07-30 11:14:00,68.3,62.9,30.27,WNW,287,0.0,0.0,83,0.00,,,0.00,WeatherCatV1.20B785,2013-07-30 15:14:00,
2013-07-30 11:19:00,68.0,62.3,30.27,WNW,288,0.0,2.0,82,0.00,,,0.00,WeatherCatV1.20B785,2013-07-30 15:19:00,
2013-07-30 11:24:00,67.9,62.2,30.27,WNW,290,0.0,3.0,82,0.00,,,0.00,WeatherCatV1.20B785,2013-07-30 15:24:00,
2013-07-30 11:29:00,67.7,62.0,30.27,WNW,300,0.0,0.0,82,0.00,,,0.00,WeatherCatV1.20B785,2013-07-30 15:29:00,
2013-07-30 11:34:00,67.7,62.7,30.27,WNW,300,0.0,0.0,84,0.00,,,0.00,WeatherCatV1.20B785,2013-07-30 15:34:00,
2013-07-30 11:39:00,67.7,62.7,30.27,WNW,300,0.0,1.0,84,0.00,,,0.00,WeatherCatV1.20B785,2013-07-30 15:39:00,
2013-07-30 11:44:00,67.7,62.7,30.28,WNW,299,0.0,2.0,84,0.00,,,0.00,WeatherCatV1.20B785,2013-07-30 15:44:00,
2013-07-30 11:49:00,67.7,62.3,30.27,WNW,299,0.0,2.0,83,0.00,,,0.00,WeatherCatV1.20B785,2013-07-30 15:49:00,
2013-07-30 11:54:00,68.1,63.1,30.27,WNW,300,0.0,2.0,84,0.00,,,0.00,WeatherCatV1.20B785,2013-07-30 15:54:00,
2013-07-30 11:59:00,68.6,63.2,30.28,WNW,300,0.0,1.0,83,0.00,,,0.00,WeatherCatV1.20B785,2013-07-30 15:59:00,
2013-07-30 12:04:00,69.2,63.1,30.27,WNW,299,0.0,0.0,81,0.00,,,0.00,WeatherCatV1.20B785,2013-07-30 16:04:00,
2013-07-30 12:09:00,69.7,64.0,30.27,WNW,300,0.0,0.0,82,0.00,,,0.00,WeatherCatV1.20B785,2013-07-30 16:09:00,
2013-07-30 12:14:00,69.7,63.6,30.27,WNW,300,0.0,1.0,81,0.00,,,0.00,WeatherCatV1.20B785,2013-07-30 16:14:00,
2013-07-30 12:19:00,69.7,63.6,30.27,WNW,299,0.0,0.0,81,0.00,,,0.00,WeatherCatV1.20B785,2013-07-30 16:19:00,
2013-07-30 12:24:00,70.1,64.0,30.27,WNW,300,0.0,0.0,81,0.00,,,0.00,WeatherCatV1.20B785,2013-07-30 16:24:00,
2013-07-30 12:29:00,70.6,63.8,30.27,WNW,300,0.0,1.0,79,0.00,,,0.00,WeatherCatV1.20B785,2013-07-30 16:29:00,
2013-07-30 12:34:00,70.8,64.3,30.27,SW,217,0.0,1.0,80,0.00,,,0.00,WeatherCatV1.20B785,2013-07-30 16:34:00,
2013-07-30 12:39:00,70.8,64.7,30.26,SW,217,0.0,1.0,81,0.00,,,0.00,WeatherCatV1.20B785,2013-07-30 16:39:00,
2013-07-30 12:44:00,71.1,65.3,30.26,North,5,0.0,3.0,82,0.00,,,0.00,WeatherCatV1.20B785,2013-07-30 16:44:00,
2013-07-30 12:49:00,71.3,64.4,30.26,North,0,0.0,0.0,79,0.00,,,0.00,WeatherCatV1.20B785,2013-07-30 16:49:00,
2013-07-30 12:54:00,71.3,64.8,30.26,North,0,1.0,5.0,80,0.00,,,0.00,WeatherCatV1.20B785,2013-07-30 16:54:00,
2013-07-30 12:59:00,72.0,65.8,30.26,North,5,0.0,4.0,81,0.00,,,0.00,WeatherCatV1.20B785,2013-07-30 16:59:00,
2013-07-30 13:04:00,72.0,64.4,30.26,North,0,0.0,0.0,77,0.00,,,0.00,WeatherCatV1.20B785,2013-07-30 17:04:00,
2013-07-30 13:09:00,72.0,63.6,30.26,North,5,0.0,0.0,75,0.00,,,0.00,WeatherCatV1.20B785,2013-07-30 17:09:00,
2013-07-30 13:14:00,72.4,62.8,30.26,North,5,0.0,0.0,72,0.00,,,0.00,WeatherCatV1.20B785,2013-07-30 17:14:00,
2013-07-30 13:19:00,72.7,63.9,30.26,North,0,0.0,1.0,74,0.00,,,0.00,WeatherCatV1.20B785,2013-07-30 17:19:00,
2013-07-30 13:24:00,73.1,62.3,30.26,North,0,0.0,0.0,69,0.00,,,0.00,WeatherCatV1.20B785,2013-07-30 17:24:00,
2013-07-30 13:29:00,72.9,63.7,30.26,West,263,0.0,0.0,73,0.00,,,0.00,WeatherCatV1.20B785,2013-07-30 17:29:00,
2013-07-30 13:34:00,72.9,63.3,30.26,West,263,0.0,0.0,72,0.00,,,0.00,WeatherCatV1.20B785,2013-07-30 17:34:00,
2013-07-30 13:39:00,72.7,64.3,30.25,NNW,339,0.0,1.0,75,0.00,,,0.00,WeatherCatV1.20B785,2013-07-30 17:39:00,
2013-07-30 13:44:00,72.4,65.1,30.25,NNW,339,0.0,1.0,78,0.00,,,0.00,WeatherCatV1.20B785,2013-07-30 17:44:00,
2013-07-30 13:49:00,71.8,62.7,30.25,NNW,338,0.0,0.0,73,0.00,,,0.00,WeatherCatV1.20B785,2013-07-30 17:49:00,
2013-07-30 13:54:00,71.5,63.9,30.25,NNW,338,0.0,0.0,77,0.00,,,0.00,WeatherCatV1.20B785,2013-07-30 17:54:00,
2013-07-30 13:59:00,71.1,63.9,30.25,NNW,339,0.0,0.0,78,0.00,,,0.00,WeatherCatV1.20B785,2013-07-30 17:59:00,
2013-07-30 14:04:00,70.6,63.8,30.25,NNW,338,0.0,1.0,79,0.00,,,0.00,WeatherCatV1.20B785,2013-07-30 18:04:00,
2013-07-30 14:09:00,70.9,64.8,30.24,NNW,338,0.0,0.0,81,0.00,,,0.00,WeatherCatV1.20B785,2013-07-30 18:09:00,
2013-07-30 14:14:00,71.0,64.2,30.24,NNW,339,0.0,0.0,79,0.00,,,0.00,WeatherCatV1.20B785,2013-07-30 18:14:00,
2013-07-30 14:19:00,71.0,64.5,30.24,NNW,339,0.0,0.0,80,0.00,,,0.00,WeatherCatV1.20B785,2013-07-30 18:19:00,
2013-07-30 14:24:00,71.2,64.3,30.24,NNW,338,0.0,1.0,79,0.00,,,0.00,WeatherCatV1.20B785,2013-07-30 18:24:00,
2013-07-30 14:29:00,71.3,65.2,30.25,NNW,339,0.0,0.0,81,0.00,,,0.00,WeatherCatV1.20B785,2013-07-30 18:29:00,
2013-07-30 14:34:00,71.0,65.2,30.25,NNW,339,0.0,0.0,82,0.00,,,0.00,WeatherCatV1.20B785,2013-07-30 18:34:00,
2013-07-30 14:39:00,70.7,64.9,30.25,NNW,338,0.0,0.0,82,0.00,,,0.00,WeatherCatV1.20B785,2013-07-30 18:39:00,
2013-07-30 14:44:00,70.7,64.9,30.24,NNW,339,1.0,3.0,82,0.00,,,0.00,WeatherCatV1.20B785,2013-07-30 18:44:00,
2013-07-30 14:49:00,71.0,64.9,30.24,NNW,338,0.0,0.0,81,0.00,,,0.00,WeatherCatV1.20B785,2013-07-30 18:49:00,
2013-07-30 14:54:00,71.0,64.5,30.24,NNW,339,0.0,0.0,80,0.00,,,0.00,WeatherCatV1.20B785,2013-07-30 18:54:00,
2013-07-30 14:59:00,71.1,64.6,30.24,NNW,340,0.0,1.0,80,0.00,,,0.00,WeatherCatV1.20B785,2013-07-30 18:59:00,
2013-07-30 15:04:00,71.3,65.2,30.24,NNW,340,0.0,0.0,81,0.00,,,0.00,WeatherCatV1.20B785,2013-07-30 19:04:00,
2013-07-30 15:09:00,71.1,65.3,30.24,NNW,340,0.0,1.0,82,0.00,,,0.00,WeatherCatV1.20B785,2013-07-30 19:09:00,
2013-07-30 15:14:00,71.0,64.9,30.24,NNW,340,0.0,0.0,81,0.00,,,0.00,WeatherCatV1.20B785,2013-07-30 19:14:00,
2013-07-30 15:19:00,71.0,65.6,30.24,NNW,340,0.0,0.0,83,0.00,,,0.00,WeatherCatV1.20B785,2013-07-30 19:19:00,
2013-07-30 15:24:00,70.8,65.4,30.24,NNW,345,0.0,1.0,83,0.00,,,0.00,WeatherCatV1.20B785,2013-07-30 19:24:00,
2013-07-30 15:29:00,70.7,65.6,30.24,NNW,345,0.0,0.0,84,0.00,,,0.00,WeatherCatV1.20B785,2013-07-30 19:29:00,
2013-07-30 15:34:00,70.8,65.7,30.24,NNW,345,0.0,3.0,84,0.00,,,0.00,WeatherCatV1.20B785,2013-07-30 19:34:00,
2013-07-30 15:39:00,70.8,65.7,30.23,NNW,345,0.0,0.0,84,0.00,,,0.00,WeatherCatV1.20B785,2013-07-30 19:39:00,
2013-07-30 15:44:00,70.8,65.4,30.23,NNW,345,0.0,0.0,83,0.00,,,0.00,WeatherCatV1.20B785,2013-07-30 19:44:00,
2013-07-30 15:49:00,70.9,65.8,30.23,NNW,345,0.0,1.0,84,0.00,,,0.00,WeatherCatV1.20B785,2013-07-30 19:49:00,
2013-07-30 15:54:00,71.1,66.0,30.23,NNW,345,0.0,3.0,84,0.00,,,0.00,WeatherCatV1.20B785,2013-07-30 19:54:00,
2013-07-30 15:59:00,71.2,66.4,30.23,NNW,345,0.0,1.0,85,0.00,,,0.00,WeatherCatV1.20B785,2013-07-30 19:59:00,
2013-07-30 16:04:00,71.2,66.8,30.23,NNW,345,0.0,0.0,86,0.00,,,0.00,WeatherCatV1.20B785,2013-07-30 20:04:00,
2013-07-30 16:09:00,71.1,66.7,30.23,NNW,345,0.0,0.0,86,0.00,,,0.00,WeatherCatV1.20B785,2013-07-30 20:09:00,
2013-07-30 16:14:00,70.9,65.5,30.23,NNW,345,0.0,1.0,83,0.00,,,0.00,WeatherCatV1.20B785,2013-07-30 20:14:00,
2013-07-30 16:19:00,70.8,66.1,30.23,NNW,345,0.0,0.0,85,0.00,,,0.00,WeatherCatV1.20B785,2013-07-30 20:19:00,
2013-07-30 16:24:00,70.9,66.5,30.23,NNW,345,1.0,2.0,86,0.00,,,0.00,WeatherCatV1.20B785,2013-07-30 20:24:00,
2013-07-30 16:29:00,71.1,67.0,30.23,NNW,345,0.0,2.0,87,0.00,,,0.00,WeatherCatV1.20B785,2013-07-30 20:29:00,
2013-07-30 16:34:00,71.2,66.4,30.23,NNW,345,0.0,1.0,85,0.00,,,0.00,WeatherCatV1.20B785,2013-07-30 20:34:00,
2013-07-30 16:39:00,71.2,66.4,30.23,NNW,345,0.0,0.0,85,0.00,,,0.00,WeatherCatV1.20B785,2013-07-30 20:39:00,
2013-07-30 16:44:00,71.3,66.6,30.23,NNW,345,0.0,3.0,85,0.00,,,0.00,WeatherCatV1.20B785,2013-07-30 20:44:00,
2013-07-30 16:49:00,71.5,67.1,30.23,NNW,345,0.0,0.0,86,0.00,,,0.00,WeatherCatV1.20B785,2013-07-30 20:49:00,
2013-07-30 16:54:00,71.6,66.2,30.23,NNW,345,0.0,0.0,83,0.00,,,0.00,WeatherCatV1.20B785,2013-07-30 20:54:00,
2013-07-30 16:59:00,71.6,66.8,30.23,NNW,345,0.0,1.0,85,0.00,,,0.00,WeatherCatV1.20B785,2013-07-30 20:59:00,
2013-07-30 17:04:00,71.4,66.7,30.23,NNW,345,0.0,1.0,85,0.00,,,0.00,WeatherCatV1.20B785,2013-07-30 21:04:00,
2013-07-30 17:09:00,71.1,66.3,30.23,NNW,345,0.0,0.0,85,0.00,,,0.00,WeatherCatV1.20B785,2013-07-30 21:09:00,
2013-07-30 17:14:00,70.9,66.5,30.23,NNW,345,0.0,2.0,86,0.00,,,0.00,WeatherCatV1.20B785,2013-07-30 21:14:00,
2013-07-30 17:19:00,70.9,66.5,30.23,NNW,345,0.0,0.0,86,0.00,,,0.00,WeatherCatV1.20B785,2013-07-30 21:19:00,
2013-07-30 17:24:00,70.8,67.1,30.23,NNW,345,0.0,0.0,88,0.00,,,0.00,WeatherCatV1.20B785,2013-07-30 21:24:00,
2013-07-30 17:29:00,70.7,66.6,30.23,NNW,345,0.0,0.0,87,0.00,,,0.00,WeatherCatV1.20B785,2013-07-30 21:29:00,
2013-07-30 17:34:00,70.5,66.4,30.23,NNW,345,0.0,0.0,87,0.00,,,0.00,WeatherCatV1.20B785,2013-07-30 21:34:00,
2013-07-30 17:39:00,70.4,66.0,30.23,NNW,345,0.0,0.0,86,0.00,,,0.00,WeatherCatV1.20B785,2013-07-30 21:39:00,
2013-07-30 17:44:00,70.3,65.6,30.23,NNW,345,0.0,0.0,85,0.00,,,0.00,WeatherCatV1.20B785,2013-07-30 21:44:00,
2013-07-30 17:49:00,70.4,66.0,30.24,NNW,345,0.0,0.0,86,0.00,,,0.00,WeatherCatV1.20B785,2013-07-30 21:49:00,
2013-07-30 17:54:00,70.4,66.3,30.24,NNW,345,0.0,0.0,87,0.00,,,0.00,WeatherCatV1.20B785,2013-07-30 21:54:00,
2013-07-30 17:59:00,70.2,66.1,30.23,NNW,345,0.0,1.0,87,0.00,,,0.00,WeatherCatV1.20B785,2013-07-30 21:59:00,
2013-07-30 18:04:00,70.2,66.5,30.23,NNW,345,0.0,0.0,88,0.00,,,0.00,WeatherCatV1.20B785,2013-07-30 22:04:00,
2013-07-30 18:09:00,70.2,66.8,30.23,NNW,345,0.0,0.0,89,0.00,,,0.00,WeatherCatV1.20B785,2013-07-30 22:09:00,
2013-07-30 18:14:00,70.1,66.7,30.23,NNW,345,0.0,0.0,89,0.00,,,0.00,WeatherCatV1.20B785,2013-07-30 22:14:00,
2013-07-30 18:19:00,69.9,66.5,30.23,NNW,345,0.0,0.0,89,0.00,,,0.00,WeatherCatV1.20B785,2013-07-30 22:19:00,
2013-07-30 18:24:00,69.9,66.5,30.23,NNW,345,0.0,0.0,89,0.00,,,0.00,WeatherCatV1.20B785,2013-07-30 22:24:00,
2013-07-30 18:29:00,69.8,66.7,30.23,NNW,345,0.0,0.0,90,0.00,,,0.00,WeatherCatV1.20B785,2013-07-30 22:29:00,
2013-07-30 18:34:00,69.5,66.4,30.23,NNW,345,0.0,0.0,90,0.00,,,0.00,WeatherCatV1.20B785,2013-07-30 22:34:00,
2013-07-30 18:39:00,69.4,66.7,30.23,NNW,345,0.0,1.0,91,0.00,,,0.00,WeatherCatV1.20B785,2013-07-30 22:39:00,
2013-07-30 18:44:00,69.2,66.4,30.23,NNW,345,0.0,0.0,91,0.00,,,0.00,WeatherCatV1.20B785,2013-07-30 22:44:00,
2013-07-30 18:47:00,69.1,66.4,30.23,NNW,345,0.0,0.0,91,0.00,,,0.00,WeatherCatV1.20B785,2013-07-30 22:47:00,
2013-07-30 18:52:00,69.0,66.3,30.23,NNW,345,0.0,0.0,91,0.00,,,0.00,WeatherCatV1.20B785,2013-07-30 22:52:00,
2013-07-30 18:57:00,69.0,66.6,30.23,NNW,345,0.0,0.0,92,0.00,,,0.00,WeatherCatV1.20B785,2013-07-30 22:57:00,
2013-07-30 19:02:00,68.8,66.4,30.23,NNW,345,0.0,0.0,92,0.00,,,0.00,WeatherCatV1.20B785,2013-07-30 23:02:00,
2013-07-30 19:08:00,68.7,66.3,30.23,NNW,345,0.0,0.0,92,0.00,,,0.00,WeatherCatV1.20B785,2013-07-30 23:08:00,
2013-07-30 19:13:00,68.5,66.1,30.23,NNW,345,0.0,0.0,92,0.00,,,0.00,WeatherCatV1.20B785,2013-07-30 23:13:00,
2013-07-30 19:18:00,68.4,66.0,30.23,NNW,345,0.0,0.0,92,0.00,,,0.00,WeatherCatV1.20B785,2013-07-30 23:18:00,
2013-07-30 19:23:00,68.2,66.1,30.23,NNW,345,0.0,0.0,93,0.00,,,0.00,WeatherCatV1.20B785,2013-07-30 23:23:00,
2013-07-30 19:28:00,68.1,66.0,30.23,NNW,345,0.0,0.0,93,0.00,,,0.00,WeatherCatV1.20B785,2013-07-30 23:28:00,
2013-07-30 19:33:00,68.1,66.0,30.23,NNW,345,0.0,0.0,93,0.00,,,0.00,WeatherCatV1.20B785,2013-07-30 23:33:00,
2013-07-30 19:38:00,67.9,65.8,30.23,NNW,345,0.0,0.0,93,0.00,,,0.00,WeatherCatV1.20B785,2013-07-30 23:38:00,
2013-07-30 19:43:00,67.8,65.7,30.23,NNW,345,0.0,0.0,93,0.00,,,0.00,WeatherCatV1.20B785,2013-07-30 23:43:00,
2013-07-30 19:48:00,67.7,65.6,30.23,NNW,345,0.0,0.0,93,0.00,,,0.00,WeatherCatV1.20B785,2013-07-30 23:48:00,
2013-07-30 19:53:00,67.6,65.5,30.23,NNW,345,0.0,0.0,93,0.00,,,0.00,WeatherCatV1.20B785,2013-07-30 23:53:00,
2013-07-30 19:58:00,67.5,65.4,30.23,NNW,345,0.0,0.0,93,0.00,,,0.00,WeatherCatV1.20B785,2013-07-30 23:58:00,
2013-07-30 20:03:00,67.3,65.2,30.23,NNW,345,0.0,0.0,93,0.00,,,0.00,WeatherCatV1.20B785,2013-07-31 00:03:00,
2013-07-30 20:08:00,67.2,65.4,30.23,NNW,345,0.0,0.0,94,0.00,,,0.00,WeatherCatV1.20B785,2013-07-31 00:08:00,
2013-07-30 20:13:00,67.1,65.3,30.23,NNW,345,0.0,0.0,94,0.00,,,0.00,WeatherCatV1.20B785,2013-07-31 00:13:00,
2013-07-30 20:18:00,66.9,65.1,30.23,NNW,345,0.0,1.0,94,0.00,,,0.00,WeatherCatV1.20B785,2013-07-31 00:18:00,
2013-07-30 20:23:00,66.7,64.9,30.23,NNW,345,0.0,0.0,94,0.00,,,0.00,WeatherCatV1.20B785,2013-07-31 00:23:00,
2013-07-30 20:28:00,66.5,64.7,30.23,NNW,345,0.0,1.0,94,0.00,,,0.00,WeatherCatV1.20B785,2013-07-31 00:28:00,
2013-07-30 20:33:00,66.2,64.4,30.23,NNW,345,0.0,1.0,94,0.00,,,0.00,WeatherCatV1.20B785,2013-07-31 00:33:00,
2013-07-30 20:38:00,66.1,64.3,30.23,NNW,345,0.0,0.0,94,0.00,,,0.00,WeatherCatV1.20B785,2013-07-31 00:38:00,
2013-07-30 20:43:00,65.9,64.1,30.23,NNW,345,0.0,0.0,94,0.00,,,0.00,WeatherCatV1.20B785,2013-07-31 00:43:00,
2013-07-30 20:48:00,65.7,63.9,30.23,NNW,345,0.0,0.0,94,0.00,,,0.00,WeatherCatV1.20B785,2013-07-31 00:48:00,
2013-07-30 20:53:00,65.6,63.8,30.23,NNW,345,0.0,0.0,94,0.00,,,0.00,WeatherCatV1.20B785,2013-07-31 00:53:00,
2013-07-30 20:58:00,65.4,63.9,30.23,NNW,345,0.0,0.0,95,0.00,,,0.00,WeatherCatV1.20B785,2013-07-31 00:58:00,
2013-07-30 21:03:00,65.3,63.8,30.23,NNW,345,0.0,0.0,95,0.00,,,0.00,WeatherCatV1.20B785,2013-07-31 01:03:00,
2013-07-30 21:08:00,65.2,63.7,30.24,NNW,345,0.0,0.0,95,0.00,,,0.00,WeatherCatV1.20B785,2013-07-31 01:08:00,
2013-07-30 21:13:00,65.0,63.5,30.24,NNW,345,0.0,0.0,95,0.00,,,0.00,WeatherCatV1.20B785,2013-07-31 01:13:00,
2013-07-30 21:18:00,64.9,63.4,30.24,NNW,345,0.0,0.0,95,0.00,,,0.00,WeatherCatV1.20B785,2013-07-31 01:18:00,
2013-07-30 21:23:00,64.8,63.3,30.24,NNW,345,0.0,0.0,95,0.00,,,0.00,WeatherCatV1.20B785,2013-07-31 01:23:00,
2013-07-30 21:28:00,64.8,63.6,30.23,NNW,345,0.0,1.0,96,0.00,,,0.00,WeatherCatV1.20B785,2013-07-31 01:28:00,
2013-07-30 21:33:00,64.8,63.6,30.23,NNW,345,0.0,0.0,96,0.00,,,0.00,WeatherCatV1.20B785,2013-07-31 01:33:00,
2013-07-30 21:38:00,64.8,63.6,30.24,NNW,345,0.0,0.0,96,0.00,,,0.00,WeatherCatV1.20B785,2013-07-31 01:38:00,
2013-07-30 21:43:00,64.7,63.5,30.24,NNW,345,0.0,0.0,96,0.00,,,0.00,WeatherCatV1.20B785,2013-07-31 01:43:00,
2013-07-30 21:48:00,64.7,63.5,30.24,NNW,345,0.0,0.0,96,0.00,,,0.00,WeatherCatV1.20B785,2013-07-31 01:48:00,
2013-07-30 21:53:00,64.5,63.3,30.25,NNW,345,0.0,0.0,96,0.00,,,0.00,WeatherCatV1.20B785,2013-07-31 01:53:00,
2013-07-30 21:58:00,64.5,63.3,30.25,NNW,345,0.0,0.0,96,0.00,,,0.00,WeatherCatV1.20B785,2013-07-31 01:58:00,
2013-07-30 22:03:00,64.5,63.3,30.25,NNW,345,0.0,0.0,96,0.00,,,0.00,WeatherCatV1.20B785,2013-07-31 02:03:00,
2013-07-30 22:08:00,64.5,63.6,30.26,NNW,345,0.0,0.0,97,0.00,,,0.00,WeatherCatV1.20B785,2013-07-31 02:08:00,
2013-07-30 22:13:00,64.5,63.6,30.26,NNW,345,0.0,1.0,97,0.00,,,0.00,WeatherCatV1.20B785,2013-07-31 02:13:00,
2013-07-30 22:18:00,64.5,63.3,30.26,NNW,345,0.0,0.0,96,0.00,,,0.00,WeatherCatV1.20B785,2013-07-31 02:18:00,
2013-07-30 22:23:00,64.4,63.2,30.26,NNW,345,0.0,0.0,96,0.00,,,0.00,WeatherCatV1.20B785,2013-07-31 02:23:00,
2013-07-30 22:28:00,64.4,63.5,30.26,NNW,345,0.0,0.0,97,0.00,,,0.00,WeatherCatV1.20B785,2013-07-31 02:28:00,
2013-07-30 22:33:00,64.4,63.2,30.26,NNW,345,0.0,0.0,96,0.00,,,0.00,WeatherCatV1.20B785,2013-07-31 02:33:00,
2013-07-30 22:38:00,64.4,63.2,30.25,NNW,345,0.0,0.0,96,0.00,,,0.00,WeatherCatV1.20B785,2013-07-31 02:38:00,
2013-07-30 22:43:00,64.3,63.1,30.26,NNW,345,0.0,0.0,96,0.00,,,0.00,WeatherCatV1.20B785,2013-07-31 02:43:00,
2013-07-30 22:48:00,64.2,63.0,30.26,NNW,345,0.0,0.0,96,0.00,,,0.00,WeatherCatV1.20B785,2013-07-31 02:48:00,
2013-07-30 22:53:00,64.2,63.0,30.26,NNW,345,0.0,0.0,96,0.00,,,0.00,WeatherCatV1.20B785,2013-07-31 02:53:00,
2013-07-30 22:58:00,64.1,62.9,30.26,NNW,345,0.0,0.0,96,0.00,,,0.00,WeatherCatV1.20B785,2013-07-31 02:58:00,
2013-07-30 23:03:00,64.1,62.9,30.26,NNW,345,0.0,0.0,96,0.00,,,0.00,WeatherCatV1.20B785,2013-07-31 03:03:00,
2013-07-30 23:08:00,64.1,62.9,30.25,NNW,345,0.0,0.0,96,0.00,,,0.00,WeatherCatV1.20B785,2013-07-31 03:08:00,
2013-07-30 23:13:00,64.0,62.8,30.25,NNW,345,0.0,0.0,96,0.00,,,0.00,WeatherCatV1.20B785,2013-07-31 03:13:00,
2013-07-30 23:18:00,64.0,62.8,30.25,NNW,345,0.0,0.0,96,0.00,,,0.00,WeatherCatV1.20B785,2013-07-31 03:18:00,
2013-07-30 23:23:00,64.0,62.8,30.25,NNW,345,0.0,0.0,96,0.00,,,0.00,WeatherCatV1.20B785,2013-07-31 03:23:00,
2013-07-30 23:28:00,64.0,62.8,30.25,NNW,345,0.0,0.0,96,0.00,,,0.00,WeatherCatV1.20B785,2013-07-31 03:28:00,
2013-07-30 23:33:00,64.0,62.8,30.25,NNW,345,0.0,0.0,96,0.00,,,0.00,WeatherCatV1.20B785,2013-07-31 03:33:00,
2013-07-30 23:38:00,64.0,62.8,30.25,NNW,345,0.0,0.0,96,0.00,,,0.00,WeatherCatV1.20B785,2013-07-31 03:38:00,
2013-07-30 23:43:00,64.0,63.1,30.25,NNW,345,0.0,0.0,97,0.00,,,0.00,WeatherCatV1.20B785,2013-07-31 03:43:00,
2013-07-30 23:48:00,64.0,63.1,30.25,NNW,345,0.0,0.0,97,0.00,,,0.00,WeatherCatV1.20B785,2013-07-31 03:48:00,
2013-07-30 23:53:00,64.0,63.1,30.25,NNW,345,0.0,0.0,97,0.00,,,0.00,WeatherCatV1.20B785,2013-07-31 03:53:00,
2013-07-30 23:58:00,63.9,63.0,30.26,NNW,345,0.0,0.0,97,0.00,,,0.00,WeatherCatV1.20B785,2013-07-31 03:58:00,